createdAt,value
2017-12-16T00:02:09.083Z,6.28
2017-12-16T00:04:37.180Z,10.30
2017-12-16T00:07:06.044Z,9.65
2017-12-16T00:09:34.158Z,9.43
2017-12-16T00:12:02.228Z,7.60
2017-12-16T00:14:30.340Z,9.15
2017-12-16T00:16:58.425Z,10.43
2017-12-16T00:19:26.547Z,11.25
2017-12-16T00:21:54.604Z,8.00
2017-12-16T00:24:22.743Z,8.85
2017-12-16T00:26:50.812Z,9.88
2017-12-16T00:29:18.930Z,10.05
2017-12-16T00:31:47.022Z,13.15
2017-12-16T00:34:15.115Z,7.78
2017-12-16T00:36:43.235Z,6.82
2017-12-16T00:39:11.315Z,9.07
2017-12-16T00:41:39.445Z,11.30
2017-12-16T00:44:07.542Z,12.48
2017-12-16T00:46:35.623Z,12.63
2017-12-16T00:49:03.708Z,9.23
2017-12-16T00:51:31.783Z,9.88
2017-12-16T00:53:59.887Z,10.73
2017-12-16T00:56:27.977Z,10.73
2017-12-16T00:58:56.946Z,13.75
2017-12-16T01:01:25.027Z,12.45
2017-12-16T01:03:53.175Z,12.70
2017-12-16T01:06:21.270Z,10.75
2017-12-16T01:08:50.175Z,12.35
2017-12-16T01:11:18.267Z,11.15
2017-12-16T01:13:46.340Z,10.50
2017-12-16T01:16:14.464Z,11.35
2017-12-16T01:18:42.541Z,12.75
2017-12-16T01:21:11.503Z,24.02
2017-12-16T01:23:39.597Z,15.52
2017-12-16T01:26:07.708Z,11.50
2017-12-16T01:28:35.798Z,12.05
2017-12-16T01:31:03.883Z,17.02
2017-12-16T01:33:43.688Z,10.52
2017-12-16T01:36:34.332Z,11.55
2017-12-16T01:39:02.426Z,16.30
2017-12-16T01:41:31.287Z,18.12
2017-12-16T01:43:59.380Z,14.70
2017-12-16T01:46:27.462Z,9.95
2017-12-16T01:48:56.306Z,11.55
2017-12-16T01:51:24.387Z,14.15
2017-12-16T01:53:52.482Z,10.85
2017-12-16T01:56:21.323Z,10.23
2017-12-16T01:58:49.415Z,13.40
2017-12-16T02:01:17.534Z,13.07
2017-12-16T02:03:45.618Z,10.02
2017-12-16T02:06:13.711Z,9.27
2017-12-16T02:08:42.424Z,25.75
2017-12-16T02:11:11.420Z,48.30
2017-12-16T02:13:40.287Z,46.13
2017-12-16T02:16:08.437Z,56.63
2017-12-16T02:18:36.662Z,33.88
2017-12-16T02:21:04.748Z,24.23
2017-12-16T02:23:33.053Z,52.38
2017-12-16T02:26:01.283Z,51.28
2017-12-16T02:28:29.353Z,21.95
2017-12-16T02:30:58.195Z,12.60
2017-12-16T02:33:26.320Z,11.20
2017-12-16T02:35:55.208Z,8.70
2017-12-16T02:38:24.096Z,8.05
2017-12-16T02:40:52.967Z,8.77
2017-12-16T02:43:21.093Z,11.60
2017-12-16T02:45:49.151Z,7.53
2017-12-16T02:48:17.279Z,8.85
2017-12-16T02:50:45.366Z,10.20
2017-12-16T02:53:13.443Z,11.20
2017-12-16T02:55:41.548Z,11.07
2017-12-16T02:58:09.676Z,10.10
2017-12-16T03:00:37.728Z,8.85
2017-12-16T03:03:05.899Z,9.43
2017-12-16T03:05:33.964Z,11.02
2017-12-16T03:08:02.052Z,10.98
2017-12-16T03:10:31.013Z,12.45
2017-12-16T03:12:59.158Z,10.18
2017-12-16T03:15:27.394Z,11.55
2017-12-16T03:17:55.512Z,13.45
2017-12-16T03:20:23.639Z,14.13
2017-12-16T03:22:52.554Z,12.13
2017-12-16T03:25:20.736Z,13.02
2017-12-16T03:27:48.849Z,18.48
2017-12-16T03:30:16.975Z,13.90
2017-12-16T03:32:45.075Z,13.62
2017-12-16T03:35:13.314Z,11.80
2017-12-16T03:37:42.481Z,12.30
2017-12-16T03:40:10.641Z,13.60
2017-12-16T03:42:39.536Z,13.00
2017-12-16T03:45:07.608Z,12.77
2017-12-16T03:47:36.641Z,13.88
2017-12-16T03:50:04.717Z,12.00
2017-12-16T03:52:32.875Z,14.25
2017-12-16T03:55:01.015Z,11.48
2017-12-16T03:57:29.998Z,11.95
2017-12-16T03:59:58.990Z,14.68
2017-12-16T04:02:27.086Z,12.40
2017-12-16T04:04:55.207Z,14.95
2017-12-16T04:07:23.302Z,13.62
2017-12-16T04:09:52.843Z,15.25
2017-12-16T04:12:20.931Z,13.18
2017-12-16T04:14:49.078Z,11.57
2017-12-16T04:17:17.200Z,25.20
2017-12-16T04:19:45.292Z,19.08
2017-12-16T04:22:14.259Z,14.75
2017-12-16T04:24:43.867Z,17.15
2017-12-16T04:27:11.940Z,10.70
2017-12-16T04:29:40.027Z,14.27
2017-12-16T04:32:08.114Z,10.27
2017-12-16T04:34:36.245Z,10.05
2017-12-16T04:37:04.320Z,9.20
2017-12-16T04:39:32.386Z,9.27
2017-12-16T04:42:00.467Z,8.50
2017-12-16T04:44:28.556Z,9.98
2017-12-16T04:46:57.407Z,9.40
2017-12-16T04:49:25.467Z,8.88
2017-12-16T04:51:53.575Z,10.27
2017-12-16T04:54:22.414Z,10.95
2017-12-16T04:56:50.487Z,12.00
2017-12-16T04:59:18.571Z,11.20
2017-12-16T05:01:46.664Z,13.48
2017-12-16T05:04:14.747Z,13.30
2017-12-16T05:06:43.583Z,16.67
2017-12-16T05:09:11.666Z,14.48
2017-12-16T05:11:39.746Z,13.62
2017-12-16T05:14:07.838Z,13.93
2017-12-16T05:16:36.695Z,13.25
2017-12-16T05:19:04.769Z,15.00
2017-12-16T05:21:32.848Z,15.40
2017-12-16T05:24:00.932Z,17.87
2017-12-16T05:26:29.024Z,14.90
2017-12-16T05:28:57.116Z,17.02
2017-12-16T05:31:25.282Z,17.45
2017-12-16T05:33:53.365Z,15.18
2017-12-16T05:36:21.452Z,19.85
2017-12-16T05:38:49.531Z,15.63
2017-12-16T05:41:17.611Z,17.05
2017-12-16T05:43:45.697Z,19.35
2017-12-16T05:46:14.687Z,16.17
2017-12-16T05:48:42.768Z,17.08
2017-12-16T05:51:11.631Z,19.17
2017-12-16T05:53:39.731Z,17.33
2017-12-16T05:56:08.591Z,25.58
2017-12-16T05:58:36.699Z,28.85
2017-12-16T06:01:04.806Z,19.58
2017-12-16T06:03:32.895Z,20.88
2017-12-16T06:06:00.993Z,18.40
2017-12-16T06:08:29.846Z,25.85
2017-12-16T06:10:57.991Z,30.60
2017-12-16T06:13:26.099Z,29.92
2017-12-16T06:15:54.192Z,16.70
2017-12-16T06:18:23.043Z,20.40
2017-12-16T06:20:51.134Z,17.25
2017-12-16T06:23:19.221Z,17.50
2017-12-16T06:25:47.295Z,18.17
2017-12-16T06:28:16.154Z,21.80
2017-12-16T06:30:44.291Z,22.75
2017-12-16T06:33:12.419Z,18.35
2017-12-16T06:35:41.306Z,18.87
2017-12-16T06:38:09.400Z,17.92
2017-12-16T06:40:38.260Z,16.00
2017-12-16T06:43:06.344Z,24.40
2017-12-16T06:45:35.199Z,18.50
2017-12-16T06:48:03.304Z,18.95
2017-12-16T06:50:31.371Z,20.40
2017-12-16T06:52:59.505Z,21.08
2017-12-16T06:55:27.571Z,23.40
2017-12-16T06:57:55.667Z,20.77
2017-12-16T07:00:23.791Z,19.55
2017-12-16T07:02:51.871Z,20.70
2017-12-16T07:05:19.982Z,27.02
2017-12-16T07:07:48.090Z,19.00
2017-12-16T07:10:17.039Z,28.08
2017-12-16T07:12:45.134Z,22.20
2017-12-16T07:15:13.399Z,22.25
2017-12-16T07:17:41.475Z,36.30
2017-12-16T07:20:10.324Z,19.52
2017-12-16T07:22:38.425Z,21.20
2017-12-16T07:25:06.506Z,29.40
2017-12-16T07:27:35.358Z,29.30
2017-12-16T07:30:03.447Z,27.95
2017-12-16T07:32:31.532Z,26.90
2017-12-16T07:35:00.392Z,33.95
2017-12-16T07:37:28.479Z,31.40
2017-12-16T07:39:57.363Z,25.23
2017-12-16T07:42:25.439Z,23.38
2017-12-16T07:44:53.528Z,34.70
2017-12-16T07:47:22.379Z,31.02
2017-12-16T07:49:50.476Z,31.30
2017-12-16T07:52:18.951Z,25.05
2017-12-16T07:54:47.827Z,26.52
2017-12-16T07:57:15.915Z,25.10
2017-12-16T07:59:44.762Z,21.75
2017-12-16T08:02:12.860Z,23.00
2017-12-16T08:04:40.944Z,33.03
2017-12-16T08:07:09.803Z,35.15
2017-12-16T08:09:37.894Z,34.35
2017-12-16T08:12:05.978Z,33.90
2017-12-16T08:14:34.827Z,29.65
2017-12-16T08:17:02.927Z,44.50
2017-12-16T08:19:31.021Z,46.03
2017-12-16T08:21:59.103Z,34.97
2017-12-16T08:24:27.191Z,43.90
2017-12-16T08:26:55.323Z,50.10
2017-12-16T08:29:23.420Z,27.67
2017-12-16T08:31:51.543Z,22.98
2017-12-16T08:34:19.628Z,23.15
2017-12-16T08:36:48.488Z,24.95
2017-12-16T08:39:16.569Z,22.20
2017-12-16T08:41:44.690Z,20.65
2017-12-16T08:44:12.780Z,25.90
2017-12-16T08:46:40.888Z,32.42
2017-12-16T08:49:08.971Z,31.83
2017-12-16T08:51:38.472Z,26.20
2017-12-16T08:54:07.324Z,25.58
2017-12-16T08:56:35.415Z,22.83
2017-12-16T08:59:04.272Z,48.65
2017-12-16T09:01:32.357Z,35.22
2017-12-16T09:04:00.455Z,35.15
2017-12-16T09:06:29.319Z,32.83
2017-12-16T09:08:57.415Z,30.60
2017-12-16T09:11:26.292Z,28.95
2017-12-16T09:13:55.178Z,31.55
2017-12-16T09:16:24.036Z,38.47
2017-12-16T09:18:52.117Z,32.97
2017-12-16T09:21:20.270Z,33.00
2017-12-16T09:23:48.374Z,29.73
2017-12-16T09:26:16.458Z,39.53
2017-12-16T09:28:45.334Z,46.45
2017-12-16T09:31:13.414Z,32.58
2017-12-16T09:33:42.260Z,31.10
2017-12-16T09:36:10.347Z,42.75
2017-12-16T09:38:38.442Z,35.75
2017-12-16T09:41:06.531Z,43.22
2017-12-16T09:43:34.627Z,30.33
2017-12-16T09:46:02.716Z,30.05
2017-12-16T09:48:30.799Z,31.20
2017-12-16T09:50:58.893Z,30.95
2017-12-16T09:53:27.743Z,27.02
2017-12-16T09:55:55.849Z,31.48
2017-12-16T09:58:23.964Z,26.35
2017-12-16T10:00:52.051Z,25.58
2017-12-16T10:03:20.147Z,26.02
2017-12-16T10:05:48.240Z,32.97
2017-12-16T10:08:17.121Z,32.33
2017-12-16T10:10:45.203Z,27.05
2017-12-16T10:13:14.076Z,28.25
2017-12-16T10:15:43.049Z,32.42
2017-12-16T10:18:11.134Z,23.98
2017-12-16T10:20:39.988Z,29.05
2017-12-16T10:23:08.078Z,32.53
2017-12-16T10:25:36.211Z,23.48
2017-12-16T10:28:05.035Z,25.80
2017-12-16T10:30:33.272Z,26.62
2017-12-16T10:33:01.331Z,27.25
2017-12-16T10:35:29.438Z,22.25
2017-12-16T10:37:57.515Z,21.85
2017-12-16T10:40:25.629Z,25.67
2017-12-16T10:42:54.495Z,22.60
2017-12-16T10:45:22.574Z,26.37
2017-12-16T10:47:51.454Z,24.90
2017-12-16T10:50:19.544Z,25.52
2017-12-16T10:52:48.404Z,25.25
2017-12-16T10:55:16.519Z,17.25
2017-12-16T10:57:45.342Z,20.60
2017-12-16T11:00:13.482Z,22.13
2017-12-16T11:02:41.568Z,21.92
2017-12-16T11:05:09.657Z,23.58
2017-12-16T11:07:37.755Z,20.40
2017-12-16T11:10:05.843Z,20.17
2017-12-16T11:12:33.970Z,17.85
2017-12-16T11:15:02.039Z,16.50
2017-12-16T11:17:30.132Z,14.07
2017-12-16T11:19:59.002Z,17.30
2017-12-16T11:22:27.090Z,18.23
2017-12-16T11:24:55.195Z,15.33
2017-12-16T11:27:24.045Z,13.82
2017-12-16T11:29:52.127Z,15.00
2017-12-16T11:32:21.017Z,17.40
2017-12-16T11:34:49.092Z,16.30
2017-12-16T11:37:17.961Z,13.40
2017-12-16T11:39:46.069Z,15.63
2017-12-16T11:42:14.164Z,16.50
2017-12-16T11:44:42.267Z,14.02
2017-12-16T11:47:10.366Z,16.30
2017-12-16T11:49:39.211Z,15.13
2017-12-16T11:52:07.358Z,14.60
2017-12-16T11:54:35.446Z,13.90
2017-12-16T11:57:03.539Z,15.23
2017-12-16T11:59:31.639Z,15.90
2017-12-16T12:02:00.492Z,15.40
2017-12-16T12:04:28.579Z,15.65
2017-12-16T12:06:56.679Z,18.30
2017-12-16T12:09:24.810Z,18.30
2017-12-16T12:11:52.886Z,18.05
2017-12-16T12:14:20.971Z,15.13
2017-12-16T12:16:49.837Z,18.55
2017-12-16T12:19:17.934Z,15.77
2017-12-16T12:21:46.804Z,16.35
2017-12-16T12:24:14.942Z,15.68
2017-12-16T12:26:43.033Z,15.77
2017-12-16T12:29:11.130Z,16.65
2017-12-16T12:31:40.107Z,14.95
2017-12-16T12:34:08.175Z,15.40
2017-12-16T12:36:36.270Z,15.25
2017-12-16T12:39:05.236Z,16.02
2017-12-16T12:41:34.833Z,16.98
2017-12-16T12:44:02.927Z,16.05
2017-12-16T12:46:31.777Z,15.10
2017-12-16T12:49:00.220Z,17.35
2017-12-16T12:51:28.303Z,17.33
2017-12-16T12:53:56.439Z,13.30
2017-12-16T12:56:25.299Z,13.02
2017-12-16T12:58:53.386Z,12.95
2017-12-16T13:01:22.251Z,13.50
2017-12-16T13:03:50.340Z,12.57
2017-12-16T13:06:18.430Z,13.30
2017-12-16T13:08:46.518Z,11.95
2017-12-16T13:11:14.602Z,14.65
2017-12-16T13:13:42.695Z,11.95
2017-12-16T13:16:10.795Z,11.93
2017-12-16T13:18:39.650Z,12.45
2017-12-16T13:21:07.746Z,12.98
2017-12-16T13:23:35.830Z,13.00
2017-12-16T13:26:04.684Z,14.57
2017-12-16T13:28:32.772Z,15.30
2017-12-16T13:31:00.858Z,14.95
2017-12-16T13:33:28.939Z,15.90
2017-12-16T13:35:57.796Z,19.60
2017-12-16T13:38:27.395Z,36.20
2017-12-16T13:40:55.559Z,43.05
2017-12-16T13:43:23.654Z,28.42
2017-12-16T13:45:51.731Z,19.27
2017-12-16T13:48:20.584Z,19.27
2017-12-16T13:50:48.758Z,19.65
2017-12-16T13:53:16.765Z,21.00
2017-12-16T13:55:45.626Z,31.77
2017-12-16T13:58:13.717Z,44.78
2017-12-16T14:00:41.819Z,22.85
2017-12-16T14:03:09.907Z,21.73
2017-12-16T14:05:37.995Z,26.98
2017-12-16T14:08:06.379Z,21.60
2017-12-16T14:10:34.488Z,23.02
2017-12-16T14:13:03.330Z,22.95
2017-12-16T14:15:31.415Z,23.92
2017-12-16T14:17:59.506Z,21.75
2017-12-16T14:20:28.431Z,21.60
2017-12-16T14:22:57.321Z,24.95
2017-12-16T14:25:25.469Z,22.02
2017-12-16T14:27:53.551Z,20.40
2017-12-16T14:30:21.647Z,21.95
2017-12-16T14:32:49.729Z,20.12
2017-12-16T14:35:17.869Z,21.12
2017-12-16T14:37:46.819Z,25.30
2017-12-16T14:40:14.950Z,21.00
2017-12-16T14:42:43.109Z,19.83
2017-12-16T14:45:11.155Z,21.42
2017-12-16T14:47:40.126Z,23.30
2017-12-16T14:50:08.216Z,25.02
2017-12-16T14:52:37.124Z,25.60
2017-12-16T14:55:05.260Z,21.95
2017-12-16T14:57:33.338Z,27.52
2017-12-16T15:00:02.195Z,28.83
2017-12-16T15:02:30.290Z,24.63
2017-12-16T15:04:59.136Z,28.27
2017-12-16T15:07:27.476Z,32.03
2017-12-16T15:09:56.307Z,27.20
2017-12-16T15:12:24.430Z,27.73
2017-12-16T15:14:52.507Z,33.33
2017-12-16T15:17:20.606Z,24.55
2017-12-16T15:19:48.683Z,24.35
2017-12-16T15:22:16.779Z,28.83
2017-12-16T15:24:44.868Z,25.27
2017-12-16T15:27:13.724Z,25.12
2017-12-16T15:29:41.862Z,25.95
2017-12-16T15:32:09.946Z,26.70
2017-12-16T15:34:38.100Z,24.08
2017-12-16T15:37:06.187Z,23.83
2017-12-16T15:39:34.272Z,23.70
2017-12-16T15:42:02.352Z,22.37
2017-12-16T15:44:30.433Z,23.60
2017-12-16T15:46:58.519Z,23.77
2017-12-16T15:49:27.425Z,23.80
2017-12-16T15:51:56.267Z,22.25
2017-12-16T15:54:24.418Z,25.17
2017-12-16T15:56:52.480Z,25.60
2017-12-16T15:59:20.567Z,29.67
2017-12-16T16:01:48.740Z,24.08
2017-12-16T16:04:16.779Z,21.55
2017-12-16T16:06:44.879Z,26.55
2017-12-16T16:09:13.001Z,22.25
2017-12-16T16:11:41.887Z,23.77
2017-12-16T16:14:09.954Z,24.95
2017-12-16T16:16:38.805Z,26.10
2017-12-16T16:19:06.886Z,23.75
2017-12-16T16:21:34.982Z,24.63
2017-12-16T16:24:03.835Z,25.77
2017-12-16T16:26:31.921Z,26.92
2017-12-16T16:29:00.064Z,25.83
2017-12-16T16:31:28.118Z,25.98
2017-12-16T16:33:56.205Z,29.60
2017-12-16T16:36:24.297Z,26.35
2017-12-16T16:38:52.419Z,28.87
2017-12-16T16:41:20.532Z,24.52
2017-12-16T16:43:48.646Z,26.37
2017-12-16T16:46:17.530Z,24.90
2017-12-16T16:48:46.376Z,28.02
2017-12-16T16:51:14.456Z,25.52
2017-12-16T16:53:42.539Z,29.55
2017-12-16T16:56:10.662Z,28.08
2017-12-16T16:58:38.744Z,26.35
2017-12-16T17:01:06.883Z,27.98
2017-12-16T17:03:35.719Z,26.48
2017-12-16T17:06:03.866Z,21.87
2017-12-16T17:08:31.895Z,24.70
2017-12-16T17:11:00.947Z,24.12
2017-12-16T17:13:29.091Z,22.73
2017-12-16T17:15:57.216Z,21.40
2017-12-16T17:18:25.364Z,24.10
2017-12-16T17:20:53.426Z,22.05
2017-12-16T17:23:21.574Z,25.15
2017-12-16T17:25:49.654Z,23.15
2017-12-16T17:28:17.813Z,25.05
2017-12-16T17:30:45.963Z,26.17
2017-12-16T17:33:14.102Z,24.08
2017-12-16T17:35:42.217Z,22.35
2017-12-16T17:38:10.338Z,27.35
2017-12-16T17:40:38.422Z,25.08
2017-12-16T17:43:06.512Z,31.73
2017-12-16T17:45:35.419Z,31.45
2017-12-16T17:48:03.500Z,43.80
2017-12-16T17:50:31.580Z,33.00
2017-12-16T17:52:59.720Z,26.48
2017-12-16T17:55:28.554Z,24.00
2017-12-16T17:57:56.649Z,25.20
2017-12-16T18:00:24.787Z,20.62
2017-12-16T18:02:52.908Z,24.48
2017-12-16T18:05:20.997Z,23.87
2017-12-16T18:07:49.180Z,23.40
2017-12-16T18:10:17.372Z,23.48
2017-12-16T18:12:45.503Z,24.10
2017-12-16T18:15:14.416Z,28.35
2017-12-16T18:17:42.530Z,28.62
2017-12-16T18:20:10.658Z,25.17
2017-12-16T18:22:38.736Z,24.42
2017-12-16T18:25:06.863Z,24.67
2017-12-16T18:27:34.962Z,23.17
2017-12-16T18:30:03.139Z,25.33
2017-12-16T18:32:31.299Z,29.95
2017-12-16T18:34:59.417Z,35.25
2017-12-16T18:37:27.524Z,37.20
2017-12-16T18:39:55.594Z,33.53
2017-12-16T18:42:24.450Z,33.00
2017-12-16T18:44:52.539Z,28.42
2017-12-16T18:47:20.676Z,30.65
2017-12-16T18:49:48.788Z,24.40
2017-12-16T18:52:16.888Z,28.60
2017-12-16T18:54:45.727Z,27.23
2017-12-16T18:57:13.853Z,27.92
2017-12-16T18:59:41.995Z,28.42
2017-12-16T19:02:10.105Z,30.25
2017-12-16T19:04:38.227Z,28.95
2017-12-16T19:07:06.406Z,29.67
2017-12-16T19:09:34.436Z,29.27
2017-12-16T19:12:02.519Z,30.67
2017-12-16T19:14:30.655Z,33.95
2017-12-16T19:16:58.773Z,29.95
2017-12-16T19:19:26.886Z,28.70
2017-12-16T19:21:55.203Z,31.83
2017-12-16T19:24:23.324Z,30.65
2017-12-16T19:26:52.178Z,30.10
2017-12-16T19:29:20.372Z,27.77
2017-12-16T19:31:49.266Z,28.83
2017-12-16T19:34:17.438Z,32.65
2017-12-16T19:36:45.511Z,34.38
2017-12-16T19:39:13.718Z,30.23
2017-12-16T19:41:42.007Z,31.60
2017-12-16T19:44:10.114Z,29.20
2017-12-16T19:46:38.186Z,25.48
2017-12-16T19:49:06.314Z,32.63
2017-12-16T19:51:34.425Z,26.85
2017-12-16T19:54:02.495Z,29.08
2017-12-16T19:56:31.376Z,25.30
2017-12-16T19:58:59.526Z,28.35
2017-12-16T20:01:27.654Z,26.90
2017-12-16T20:03:56.765Z,26.15
2017-12-16T20:06:24.883Z,28.35
2017-12-16T20:08:53.010Z,27.65
2017-12-16T20:11:21.136Z,30.52
2017-12-16T20:13:49.209Z,28.77
2017-12-16T20:16:18.125Z,27.15
2017-12-16T20:18:46.247Z,24.60
2017-12-16T20:21:14.370Z,23.90
2017-12-16T20:23:43.252Z,25.75
2017-12-16T20:26:12.143Z,23.40
2017-12-16T20:28:40.259Z,23.92
2017-12-16T20:31:08.388Z,23.45
2017-12-16T20:33:36.529Z,26.60
2017-12-16T20:36:04.688Z,26.65
2017-12-16T20:38:32.819Z,23.52
2017-12-16T20:41:00.937Z,20.48
2017-12-16T20:43:29.071Z,22.65
2017-12-16T20:45:57.177Z,17.70
2017-12-16T20:48:25.298Z,22.52
2017-12-16T20:50:53.442Z,20.05
2017-12-16T20:53:22.363Z,22.27
2017-12-16T20:55:50.478Z,18.08
2017-12-16T20:58:18.794Z,20.25
2017-12-16T21:00:46.913Z,20.85
2017-12-16T21:03:15.961Z,20.70
2017-12-16T21:05:44.243Z,19.40
2017-12-16T21:08:12.371Z,19.83
2017-12-16T21:10:40.535Z,23.05
2017-12-16T21:13:08.666Z,22.00
2017-12-16T21:15:36.807Z,20.52
2017-12-16T21:18:04.921Z,20.92
2017-12-16T21:20:33.189Z,17.25
2017-12-16T21:23:01.359Z,26.67
2017-12-16T21:25:29.494Z,21.92
2017-12-16T21:27:57.612Z,16.50
2017-12-16T21:30:25.715Z,16.92
2017-12-16T21:32:53.856Z,21.65
2017-12-16T21:35:21.970Z,17.58
2017-12-16T21:37:50.857Z,15.88
2017-12-16T21:40:19.732Z,14.10
2017-12-16T21:42:47.872Z,15.40
2017-12-16T21:45:15.998Z,15.20
2017-12-16T21:47:44.879Z,14.77
2017-12-16T21:50:13.779Z,15.55
2017-12-16T21:52:42.663Z,12.95
2017-12-16T21:55:11.555Z,13.45
2017-12-16T21:57:40.442Z,13.65
2017-12-16T22:00:09.350Z,15.50
2017-12-16T22:02:37.456Z,12.37
2017-12-16T22:05:05.576Z,16.05
2017-12-16T22:07:34.471Z,14.20
2017-12-16T22:10:03.482Z,13.80
2017-12-16T22:12:31.563Z,15.90
2017-12-16T22:14:59.695Z,11.98
2017-12-16T22:17:27.821Z,24.67
2017-12-16T22:19:55.935Z,13.43
2017-12-16T22:24:59.254Z,12.35
2017-12-16T22:27:27.378Z,16.98
2017-12-16T22:29:55.505Z,16.58
2017-12-16T22:32:23.646Z,14.52
2017-12-16T22:34:51.834Z,13.38
2017-12-16T22:37:19.954Z,13.40
2017-12-16T22:39:48.069Z,15.10
2017-12-16T22:42:17.004Z,16.27
2017-12-16T22:44:45.128Z,14.35
2017-12-16T22:47:14.010Z,11.80
2017-12-16T22:49:42.132Z,14.02
2017-12-16T22:52:10.255Z,14.18
2017-12-16T22:54:38.386Z,16.15
2017-12-16T22:57:06.905Z,14.75
2017-12-16T22:59:35.067Z,12.95
2017-12-16T23:02:03.179Z,15.10
2017-12-16T23:04:31.609Z,14.13
2017-12-16T23:06:59.810Z,14.68
2017-12-16T23:09:28.698Z,13.07
2017-12-16T23:11:57.599Z,17.15
2017-12-16T23:14:26.486Z,15.45
2017-12-16T23:16:55.376Z,15.23
2017-12-16T23:19:24.260Z,20.42
2017-12-16T23:21:53.190Z,12.80
2017-12-16T23:24:21.297Z,13.20
2017-12-16T23:26:49.425Z,20.67
2017-12-16T23:29:17.488Z,17.27
2017-12-16T23:31:45.618Z,20.02
2017-12-16T23:34:13.730Z,20.80
2017-12-16T23:36:41.847Z,18.62
2017-12-16T23:39:09.954Z,20.17
2017-12-16T23:41:38.771Z,26.42
2017-12-16T23:44:06.910Z,20.15
2017-12-16T23:46:35.790Z,20.52
2017-12-16T23:49:04.679Z,18.33
2017-12-16T23:51:33.514Z,21.75
2017-12-16T23:56:44.807Z,18.52
2017-12-16T23:59:12.928Z,21.98
